sensor_id;sensor_type;location;lat;lon;timestamp;P1;durP1;ratioP1;P2;durP2;ratioP2
7833;SDS011;3962;42.696;23.354;2022-12-10T00:02:07;18.03;;;8.83;;
7833;SDS011;3962;42.696;23.354;2022-12-10T00:04:35;24.10;;;9.43;;
7833;SDS011;3962;42.696;23.354;2022-12-10T00:07:02;18.47;;;10.07;;
7833;SDS011;3962;42.696;23.354;2022-12-10T00:09:29;18.80;;;9.80;;
7833;SDS011;3962;42.696;23.354;2022-12-10T00:11:56;16.17;;;8.87;;
7833;SDS011;3962;42.696;23.354;2022-12-10T00:14:22;26.07;;;9.63;;
7833;SDS011;3962;42.696;23.354;2022-12-10T00:16:49;20.97;;;9.77;;
7833;SDS011;3962;42.696;23.354;2022-12-10T00:19:16;17.13;;;9.23;;
7833;SDS011;3962;42.696;23.354;2022-12-10T00:21:44;21.27;;;10.10;;
7833;SDS011;3962;42.696;23.354;2022-12-10T00:24:11;20.60;;;9.30;;
7833;SDS011;3962;42.696;23.354;2022-12-10T00:26:38;22.27;;;9.23;;
7833;SDS011;3962;42.696;23.354;2022-12-10T00:29:06;14.97;;;8.23;;
7833;SDS011;3962;42.696;23.354;2022-12-10T00:31:36;28.47;;;9.83;;
7833;SDS011;3962;42.696;23.354;2022-12-10T00:34:04;23.50;;;9.13;;
7833;SDS011;3962;42.696;23.354;2022-12-10T00:36:33;19.63;;;10.03;;
7833;SDS011;3962;42.696;23.354;2022-12-10T00:39:02;23.50;;;10.10;;
7833;SDS011;3962;42.696;23.354;2022-12-10T00:41:30;25.23;;;9.87;;
7833;SDS011;3962;42.696;23.354;2022-12-10T00:43:57;21.30;;;9.10;;
7833;SDS011;3962;42.696;23.354;2022-12-10T00:46:25;17.40;;;8.47;;
7833;SDS011;3962;42.696;23.354;2022-12-10T00:48:52;15.63;;;7.73;;
7833;SDS011;3962;42.696;23.354;2022-12-10T00:51:19;17.80;;;8.63;;
7833;SDS011;3962;42.696;23.354;2022-12-10T00:53:48;20.33;;;7.50;;
7833;SDS011;3962;42.696;23.354;2022-12-10T00:56:18;15.63;;;7.33;;
7833;SDS011;3962;42.696;23.354;2022-12-10T00:58:46;14.40;;;7.87;;
7833;SDS011;3962;42.696;23.354;2022-12-10T01:01:15;19.40;;;7.43;;
7833;SDS011;3962;42.696;23.354;2022-12-10T01:03:43;20.87;;;7.80;;
7833;SDS011;3962;42.696;23.354;2022-12-10T01:06:10;14.03;;;7.23;;
7833;SDS011;3962;42.696;23.354;2022-12-10T01:08:39;17.60;;;6.80;;
7833;SDS011;3962;42.696;23.354;2022-12-10T01:11:06;17.47;;;7.70;;
7833;SDS011;3962;42.696;23.354;2022-12-10T01:13:36;17.10;;;7.73;;
7833;SDS011;3962;42.696;23.354;2022-12-10T01:16:03;16.83;;;8.13;;
7833;SDS011;3962;42.696;23.354;2022-12-10T01:18:32;19.57;;;7.53;;
7833;SDS011;3962;42.696;23.354;2022-12-10T01:21:00;14.03;;;7.70;;
7833;SDS011;3962;42.696;23.354;2022-12-10T01:23:28;19.50;;;8.13;;
7833;SDS011;3962;42.696;23.354;2022-12-10T01:25:58;18.13;;;8.03;;
7833;SDS011;3962;42.696;23.354;2022-12-10T01:28:25;16.57;;;8.10;;
7833;SDS011;3962;42.696;23.354;2022-12-10T01:30:58;16.90;;;7.10;;
7833;SDS011;3962;42.696;23.354;2022-12-10T01:33:27;20.03;;;7.73;;
7833;SDS011;3962;42.696;23.354;2022-12-10T01:35:53;22.17;;;8.10;;
7833;SDS011;3962;42.696;23.354;2022-12-10T01:38:20;16.97;;;7.13;;
7833;SDS011;3962;42.696;23.354;2022-12-10T01:40:47;15.47;;;7.27;;
7833;SDS011;3962;42.696;23.354;2022-12-10T01:43:14;14.57;;;7.07;;
7833;SDS011;3962;42.696;23.354;2022-12-10T01:45:42;16.97;;;7.93;;
7833;SDS011;3962;42.696;23.354;2022-12-10T01:48:10;14.60;;;7.37;;
7833;SDS011;3962;42.696;23.354;2022-12-10T01:50:37;25.60;;;8.17;;
7833;SDS011;3962;42.696;23.354;2022-12-10T01:53:04;16.27;;;7.50;;
7833;SDS011;3962;42.696;23.354;2022-12-10T01:55:38;19.73;;;7.60;;
7833;SDS011;3962;42.696;23.354;2022-12-10T01:58:10;18.27;;;6.90;;
7833;SDS011;3962;42.696;23.354;2022-12-10T02:00:39;14.43;;;6.83;;
7833;SDS011;3962;42.696;23.354;2022-12-10T02:03:13;10.03;;;5.90;;
7833;SDS011;3962;42.696;23.354;2022-12-10T02:05:44;16.23;;;7.00;;
7833;SDS011;3962;42.696;23.354;2022-12-10T02:08:19;18.00;;;6.83;;
7833;SDS011;3962;42.696;23.354;2022-12-10T02:10:55;15.83;;;6.30;;
7833;SDS011;3962;42.696;23.354;2022-12-10T02:13:30;12.33;;;7.07;;
7833;SDS011;3962;42.696;23.354;2022-12-10T02:16:05;14.17;;;7.77;;
7833;SDS011;3962;42.696;23.354;2022-12-10T02:18:39;15.27;;;7.40;;
7833;SDS011;3962;42.696;23.354;2022-12-10T02:21:10;12.87;;;7.43;;
7833;SDS011;3962;42.696;23.354;2022-12-10T02:23:43;12.53;;;7.63;;
7833;SDS011;3962;42.696;23.354;2022-12-10T02:26:14;14.17;;;7.50;;
7833;SDS011;3962;42.696;23.354;2022-12-10T02:28:48;15.53;;;7.63;;
7833;SDS011;3962;42.696;23.354;2022-12-10T02:31:23;14.03;;;7.47;;
7833;SDS011;3962;42.696;23.354;2022-12-10T02:33:54;12.63;;;8.10;;
7833;SDS011;3962;42.696;23.354;2022-12-10T02:36:24;14.33;;;7.57;;
7833;SDS011;3962;42.696;23.354;2022-12-10T02:38:54;14.17;;;7.90;;
7833;SDS011;3962;42.696;23.354;2022-12-10T02:41:24;15.10;;;7.40;;
7833;SDS011;3962;42.696;23.354;2022-12-10T02:43:54;17.77;;;8.57;;
7833;SDS011;3962;42.696;23.354;2022-12-10T02:46:26;17.93;;;8.57;;
7833;SDS011;3962;42.696;23.354;2022-12-10T02:48:55;19.13;;;8.90;;
7833;SDS011;3962;42.696;23.354;2022-12-10T02:51:24;14.83;;;8.77;;
7833;SDS011;3962;42.696;23.354;2022-12-10T02:53:58;18.30;;;8.87;;
7833;SDS011;3962;42.696;23.354;2022-12-10T02:56:28;17.07;;;8.23;;
7833;SDS011;3962;42.696;23.354;2022-12-10T02:59:06;20.07;;;8.63;;
7833;SDS011;3962;42.696;23.354;2022-12-10T03:01:44;18.37;;;8.80;;
7833;SDS011;3962;42.696;23.354;2022-12-10T03:04:22;17.23;;;8.63;;
7833;SDS011;3962;42.696;23.354;2022-12-10T03:06:54;17.50;;;8.40;;
7833;SDS011;3962;42.696;23.354;2022-12-10T03:09:27;18.93;;;7.93;;
7833;SDS011;3962;42.696;23.354;2022-12-10T03:12:01;17.50;;;7.30;;
7833;SDS011;3962;42.696;23.354;2022-12-10T03:14:33;15.77;;;7.83;;
7833;SDS011;3962;42.696;23.354;2022-12-10T03:17:02;16.47;;;9.10;;
7833;SDS011;3962;42.696;23.354;2022-12-10T03:19:33;19.53;;;7.93;;
7833;SDS011;3962;42.696;23.354;2022-12-10T03:22:03;19.93;;;8.97;;
7833;SDS011;3962;42.696;23.354;2022-12-10T03:24:32;13.03;;;7.50;;
7833;SDS011;3962;42.696;23.354;2022-12-10T03:27:00;17.33;;;8.63;;
7833;SDS011;3962;42.696;23.354;2022-12-10T03:29:30;18.90;;;8.00;;
7833;SDS011;3962;42.696;23.354;2022-12-10T03:32:00;17.03;;;8.40;;
7833;SDS011;3962;42.696;23.354;2022-12-10T03:34:28;19.00;;;9.30;;
7833;SDS011;3962;42.696;23.354;2022-12-10T03:36:55;16.57;;;8.93;;
7833;SDS011;3962;42.696;23.354;2022-12-10T03:39:23;16.00;;;8.43;;
7833;SDS011;3962;42.696;23.354;2022-12-10T03:41:50;22.07;;;9.73;;
7833;SDS011;3962;42.696;23.354;2022-12-10T03:44:26;20.27;;;8.63;;
7833;SDS011;3962;42.696;23.354;2022-12-10T03:46:54;17.37;;;8.70;;
7833;SDS011;3962;42.696;23.354;2022-12-10T03:49:22;13.87;;;9.03;;
7833;SDS011;3962;42.696;23.354;2022-12-10T03:51:49;21.37;;;9.70;;
7833;SDS011;3962;42.696;23.354;2022-12-10T03:54:16;15.10;;;9.40;;
7833;SDS011;3962;42.696;23.354;2022-12-10T03:56:43;16.93;;;8.87;;
7833;SDS011;3962;42.696;23.354;2022-12-10T03:59:10;20.27;;;8.60;;
7833;SDS011;3962;42.696;23.354;2022-12-10T04:01:37;16.27;;;9.07;;
7833;SDS011;3962;42.696;23.354;2022-12-10T04:04:04;20.43;;;9.70;;
7833;SDS011;3962;42.696;23.354;2022-12-10T04:06:32;16.83;;;9.87;;
7833;SDS011;3962;42.696;23.354;2022-12-10T04:08:59;19.37;;;9.93;;
7833;SDS011;3962;42.696;23.354;2022-12-10T04:11:26;16.87;;;9.87;;
7833;SDS011;3962;42.696;23.354;2022-12-10T04:13:53;19.10;;;10.47;;
7833;SDS011;3962;42.696;23.354;2022-12-10T04:16:37;21.97;;;9.93;;
7833;SDS011;3962;42.696;23.354;2022-12-10T04:19:05;20.87;;;11.23;;
7833;SDS011;3962;42.696;23.354;2022-12-10T04:21:35;24.03;;;11.03;;
7833;SDS011;3962;42.696;23.354;2022-12-10T04:24:21;21.20;;;11.17;;
7833;SDS011;3962;42.696;23.354;2022-12-10T04:27:08;19.13;;;11.13;;
7833;SDS011;3962;42.696;23.354;2022-12-10T04:29:37;22.83;;;10.50;;
7833;SDS011;3962;42.696;23.354;2022-12-10T04:32:04;17.53;;;9.13;;
7833;SDS011;3962;42.696;23.354;2022-12-10T04:34:32;16.57;;;8.47;;
7833;SDS011;3962;42.696;23.354;2022-12-10T04:37:00;17.23;;;8.10;;
7833;SDS011;3962;42.696;23.354;2022-12-10T04:39:28;12.63;;;7.30;;
7833;SDS011;3962;42.696;23.354;2022-12-10T04:41:55;13.47;;;8.10;;
7833;SDS011;3962;42.696;23.354;2022-12-10T04:44:22;18.47;;;8.50;;
7833;SDS011;3962;42.696;23.354;2022-12-10T04:46:49;13.90;;;8.00;;
7833;SDS011;3962;42.696;23.354;2022-12-10T04:49:16;12.27;;;7.50;;
7833;SDS011;3962;42.696;23.354;2022-12-10T04:51:43;14.20;;;7.10;;
7833;SDS011;3962;42.696;23.354;2022-12-10T04:54:11;14.67;;;7.53;;
7833;SDS011;3962;42.696;23.354;2022-12-10T04:56:39;13.83;;;8.10;;
7833;SDS011;3962;42.696;23.354;2022-12-10T04:59:06;17.97;;;8.97;;
7833;SDS011;3962;42.696;23.354;2022-12-10T05:01:33;17.33;;;8.87;;
7833;SDS011;3962;42.696;23.354;2022-12-10T05:04:01;17.83;;;9.00;;
7833;SDS011;3962;42.696;23.354;2022-12-10T05:06:30;14.67;;;8.90;;
7833;SDS011;3962;42.696;23.354;2022-12-10T05:08:58;19.07;;;11.50;;
7833;SDS011;3962;42.696;23.354;2022-12-10T05:11:26;23.47;;;10.83;;
7833;SDS011;3962;42.696;23.354;2022-12-10T05:13:55;15.13;;;9.87;;
7833;SDS011;3962;42.696;23.354;2022-12-10T05:16:23;21.33;;;10.80;;
7833;SDS011;3962;42.696;23.354;2022-12-10T05:18:52;19.43;;;11.13;;
7833;SDS011;3962;42.696;23.354;2022-12-10T05:21:19;16.17;;;8.93;;
7833;SDS011;3962;42.696;23.354;2022-12-10T05:23:47;19.67;;;10.13;;
7833;SDS011;3962;42.696;23.354;2022-12-10T05:26:15;20.97;;;11.27;;
7833;SDS011;3962;42.696;23.354;2022-12-10T05:28:46;20.83;;;10.17;;
7833;SDS011;3962;42.696;23.354;2022-12-10T05:31:16;16.33;;;9.33;;
7833;SDS011;3962;42.696;23.354;2022-12-10T05:33:44;18.33;;;9.50;;
7833;SDS011;3962;42.696;23.354;2022-12-10T05:36:12;17.97;;;9.37;;
7833;SDS011;3962;42.696;23.354;2022-12-10T05:38:40;21.27;;;11.67;;
7833;SDS011;3962;42.696;23.354;2022-12-10T05:41:08;28.27;;;13.87;;
7833;SDS011;3962;42.696;23.354;2022-12-10T05:43:37;21.57;;;11.90;;
7833;SDS011;3962;42.696;23.354;2022-12-10T05:46:07;21.37;;;10.57;;
7833;SDS011;3962;42.696;23.354;2022-12-10T05:48:36;23.80;;;12.67;;
7833;SDS011;3962;42.696;23.354;2022-12-10T05:51:03;24.27;;;11.60;;
7833;SDS011;3962;42.696;23.354;2022-12-10T05:53:30;19.10;;;10.80;;
7833;SDS011;3962;42.696;23.354;2022-12-10T05:56:00;18.20;;;10.57;;
7833;SDS011;3962;42.696;23.354;2022-12-10T05:58:28;20.00;;;12.00;;
7833;SDS011;3962;42.696;23.354;2022-12-10T06:00:56;21.13;;;11.83;;
7833;SDS011;3962;42.696;23.354;2022-12-10T06:03:26;23.93;;;11.03;;
7833;SDS011;3962;42.696;23.354;2022-12-10T06:05:53;20.23;;;11.87;;
7833;SDS011;3962;42.696;23.354;2022-12-10T06:08:20;21.70;;;12.07;;
7833;SDS011;3962;42.696;23.354;2022-12-10T06:10:47;28.40;;;14.00;;
7833;SDS011;3962;42.696;23.354;2022-12-10T06:13:14;20.67;;;12.73;;
7833;SDS011;3962;42.696;23.354;2022-12-10T06:15:41;18.90;;;11.20;;
7833;SDS011;3962;42.696;23.354;2022-12-10T06:18:08;20.57;;;11.27;;
7833;SDS011;3962;42.696;23.354;2022-12-10T06:20:38;22.10;;;10.83;;
7833;SDS011;3962;42.696;23.354;2022-12-10T06:23:05;21.30;;;11.27;;
7833;SDS011;3962;42.696;23.354;2022-12-10T06:25:32;21.57;;;11.57;;
7833;SDS011;3962;42.696;23.354;2022-12-10T06:27:59;21.63;;;11.47;;
7833;SDS011;3962;42.696;23.354;2022-12-10T06:30:26;20.53;;;10.97;;
7833;SDS011;3962;42.696;23.354;2022-12-10T06:32:53;19.80;;;11.03;;
7833;SDS011;3962;42.696;23.354;2022-12-10T06:35:20;21.77;;;12.43;;
7833;SDS011;3962;42.696;23.354;2022-12-10T06:37:48;28.97;;;16.17;;
7833;SDS011;3962;42.696;23.354;2022-12-10T06:40:15;31.30;;;15.10;;
7833;SDS011;3962;42.696;23.354;2022-12-10T06:42:42;32.80;;;16.10;;
7833;SDS011;3962;42.696;23.354;2022-12-10T06:45:09;23.00;;;10.93;;
7833;SDS011;3962;42.696;23.354;2022-12-10T06:47:36;24.50;;;13.27;;
7833;SDS011;3962;42.696;23.354;2022-12-10T06:50:03;23.27;;;12.60;;
7833;SDS011;3962;42.696;23.354;2022-12-10T06:52:30;22.10;;;13.00;;
7833;SDS011;3962;42.696;23.354;2022-12-10T06:54:58;21.80;;;11.73;;
7833;SDS011;3962;42.696;23.354;2022-12-10T06:57:25;22.47;;;12.50;;
7833;SDS011;3962;42.696;23.354;2022-12-10T06:59:52;24.10;;;14.40;;
7833;SDS011;3962;42.696;23.354;2022-12-10T07:02:19;21.27;;;11.90;;
7833;SDS011;3962;42.696;23.354;2022-12-10T07:04:45;20.43;;;12.43;;
7833;SDS011;3962;42.696;23.354;2022-12-10T07:07:12;24.43;;;12.80;;
7833;SDS011;3962;42.696;23.354;2022-12-10T07:09:39;22.20;;;12.13;;
7833;SDS011;3962;42.696;23.354;2022-12-10T07:12:07;20.03;;;12.23;;
7833;SDS011;3962;42.696;23.354;2022-12-10T07:14:34;26.97;;;14.83;;
7833;SDS011;3962;42.696;23.354;2022-12-10T07:17:01;26.70;;;15.17;;
7833;SDS011;3962;42.696;23.354;2022-12-10T07:19:30;18.87;;;11.60;;
7833;SDS011;3962;42.696;23.354;2022-12-10T07:21:57;28.80;;;14.90;;
7833;SDS011;3962;42.696;23.354;2022-12-10T07:24:23;23.37;;;13.77;;
7833;SDS011;3962;42.696;23.354;2022-12-10T07:26:50;24.37;;;13.10;;
7833;SDS011;3962;42.696;23.354;2022-12-10T07:29:20;32.27;;;16.27;;
7833;SDS011;3962;42.696;23.354;2022-12-10T07:31:48;35.67;;;18.63;;
7833;SDS011;3962;42.696;23.354;2022-12-10T07:34:15;34.00;;;17.90;;
7833;SDS011;3962;42.696;23.354;2022-12-10T07:36:42;31.57;;;18.50;;
7833;SDS011;3962;42.696;23.354;2022-12-10T07:39:09;30.23;;;16.73;;
7833;SDS011;3962;42.696;23.354;2022-12-10T07:41:42;33.30;;;19.87;;
7833;SDS011;3962;42.696;23.354;2022-12-10T07:44:09;29.83;;;17.90;;
7833;SDS011;3962;42.696;23.354;2022-12-10T07:46:39;29.03;;;16.40;;
7833;SDS011;3962;42.696;23.354;2022-12-10T07:49:06;27.23;;;14.70;;
7833;SDS011;3962;42.696;23.354;2022-12-10T07:51:33;23.47;;;13.77;;
7833;SDS011;3962;42.696;23.354;2022-12-10T07:54:00;19.57;;;12.37;;
7833;SDS011;3962;42.696;23.354;2022-12-10T07:56:27;23.50;;;12.87;;
7833;SDS011;3962;42.696;23.354;2022-12-10T07:58:54;23.77;;;11.40;;
7833;SDS011;3962;42.696;23.354;2022-12-10T08:01:22;21.10;;;12.40;;
7833;SDS011;3962;42.696;23.354;2022-12-10T08:03:52;18.87;;;11.10;;
7833;SDS011;3962;42.696;23.354;2022-12-10T08:06:22;21.00;;;10.23;;
7833;SDS011;3962;42.696;23.354;2022-12-10T08:08:49;19.57;;;10.67;;
7833;SDS011;3962;42.696;23.354;2022-12-10T08:11:18;20.13;;;10.53;;
7833;SDS011;3962;42.696;23.354;2022-12-10T08:13:46;28.07;;;13.33;;
7833;SDS011;3962;42.696;23.354;2022-12-10T08:16:14;19.33;;;11.97;;
7833;SDS011;3962;42.696;23.354;2022-12-10T08:18:44;17.83;;;10.90;;
7833;SDS011;3962;42.696;23.354;2022-12-10T08:21:13;23.30;;;11.80;;
7833;SDS011;3962;42.696;23.354;2022-12-10T08:23:42;23.13;;;13.63;;
7833;SDS011;3962;42.696;23.354;2022-12-10T08:26:10;22.40;;;13.67;;
7833;SDS011;3962;42.696;23.354;2022-12-10T08:28:39;22.83;;;11.13;;
7833;SDS011;3962;42.696;23.354;2022-12-10T08:31:07;23.03;;;12.70;;
7833;SDS011;3962;42.696;23.354;2022-12-10T08:33:35;22.63;;;14.43;;
7833;SDS011;3962;42.696;23.354;2022-12-10T08:36:03;26.77;;;14.33;;
7833;SDS011;3962;42.696;23.354;2022-12-10T08:38:32;30.13;;;16.47;;
7833;SDS011;3962;42.696;23.354;2022-12-10T08:41:04;25.80;;;16.07;;
7833;SDS011;3962;42.696;23.354;2022-12-10T08:43:32;28.57;;;14.63;;
7833;SDS011;3962;42.696;23.354;2022-12-10T08:45:59;26.27;;;15.37;;
7833;SDS011;3962;42.696;23.354;2022-12-10T08:48:26;33.13;;;15.80;;
7833;SDS011;3962;42.696;23.354;2022-12-10T08:50:52;24.90;;;15.53;;
7833;SDS011;3962;42.696;23.354;2022-12-10T08:53:19;22.20;;;13.77;;
7833;SDS011;3962;42.696;23.354;2022-12-10T08:55:50;21.23;;;13.37;;
7833;SDS011;3962;42.696;23.354;2022-12-10T08:58:17;21.37;;;12.37;;
7833;SDS011;3962;42.696;23.354;2022-12-10T09:00:44;22.50;;;12.53;;
7833;SDS011;3962;42.696;23.354;2022-12-10T09:03:11;18.10;;;11.23;;
7833;SDS011;3962;42.696;23.354;2022-12-10T09:05:39;19.40;;;9.80;;
7833;SDS011;3962;42.696;23.354;2022-12-10T09:08:06;14.27;;;8.63;;
7833;SDS011;3962;42.696;23.354;2022-12-10T09:10:33;11.17;;;7.47;;
7833;SDS011;3962;42.696;23.354;2022-12-10T09:13:03;11.83;;;7.43;;
7833;SDS011;3962;42.696;23.354;2022-12-10T09:15:30;15.47;;;8.77;;
7833;SDS011;3962;42.696;23.354;2022-12-10T09:17:57;17.90;;;8.73;;
7833;SDS011;3962;42.696;23.354;2022-12-10T09:20:24;14.80;;;8.77;;
7833;SDS011;3962;42.696;23.354;2022-12-10T09:22:50;15.63;;;9.30;;
7833;SDS011;3962;42.696;23.354;2022-12-10T09:25:17;17.30;;;10.20;;
7833;SDS011;3962;42.696;23.354;2022-12-10T09:27:46;16.90;;;10.37;;
7833;SDS011;3962;42.696;23.354;2022-12-10T09:30:14;17.70;;;9.50;;
7833;SDS011;3962;42.696;23.354;2022-12-10T09:32:42;17.30;;;9.87;;
7833;SDS011;3962;42.696;23.354;2022-12-10T09:35:09;17.53;;;9.83;;
7833;SDS011;3962;42.696;23.354;2022-12-10T09:37:35;19.80;;;11.10;;
7833;SDS011;3962;42.696;23.354;2022-12-10T09:40:03;24.53;;;12.03;;
7833;SDS011;3962;42.696;23.354;2022-12-10T09:42:33;13.17;;;8.70;;
7833;SDS011;3962;42.696;23.354;2022-12-10T09:45:09;12.07;;;8.17;;
7833;SDS011;3962;42.696;23.354;2022-12-10T09:47:49;15.93;;;8.70;;
7833;SDS011;3962;42.696;23.354;2022-12-10T09:50:24;12.10;;;8.93;;
7833;SDS011;3962;42.696;23.354;2022-12-10T09:52:56;13.17;;;8.83;;
7833;SDS011;3962;42.696;23.354;2022-12-10T09:55:30;17.80;;;10.57;;
7833;SDS011;3962;42.696;23.354;2022-12-10T09:58:02;17.60;;;10.03;;
7833;SDS011;3962;42.696;23.354;2022-12-10T10:00:34;14.37;;;9.53;;
7833;SDS011;3962;42.696;23.354;2022-12-10T10:03:03;15.17;;;8.40;;
7833;SDS011;3962;42.696;23.354;2022-12-10T10:05:32;13.17;;;8.23;;
7833;SDS011;3962;42.696;23.354;2022-12-10T10:08:02;13.00;;;7.93;;
7833;SDS011;3962;42.696;23.354;2022-12-10T10:10:32;13.27;;;7.60;;
7833;SDS011;3962;42.696;23.354;2022-12-10T10:13:01;14.23;;;8.20;;
7833;SDS011;3962;42.696;23.354;2022-12-10T10:15:43;14.77;;;7.60;;
7833;SDS011;3962;42.696;23.354;2022-12-10T10:18:13;17.97;;;9.30;;
7833;SDS011;3962;42.696;23.354;2022-12-10T10:20:43;12.77;;;8.27;;
7833;SDS011;3962;42.696;23.354;2022-12-10T10:23:12;13.30;;;7.70;;
7833;SDS011;3962;42.696;23.354;2022-12-10T10:25:40;15.13;;;7.87;;
7833;SDS011;3962;42.696;23.354;2022-12-10T10:28:09;14.30;;;8.77;;
7833;SDS011;3962;42.696;23.354;2022-12-10T10:30:39;12.30;;;7.30;;
7833;SDS011;3962;42.696;23.354;2022-12-10T10:33:11;17.30;;;8.93;;
7833;SDS011;3962;42.696;23.354;2022-12-10T10:35:43;11.83;;;6.70;;
7833;SDS011;3962;42.696;23.354;2022-12-10T10:38:15;11.40;;;7.70;;
7833;SDS011;3962;42.696;23.354;2022-12-10T10:40:46;12.23;;;6.67;;
7833;SDS011;3962;42.696;23.354;2022-12-10T10:43:18;13.57;;;7.37;;
7833;SDS011;3962;42.696;23.354;2022-12-10T10:45:56;11.00;;;7.43;;
7833;SDS011;3962;42.696;23.354;2022-12-10T10:48:26;14.93;;;7.70;;
7833;SDS011;3962;42.696;23.354;2022-12-10T10:50:53;13.57;;;6.87;;
7833;SDS011;3962;42.696;23.354;2022-12-10T10:53:26;12.13;;;6.93;;
7833;SDS011;3962;42.696;23.354;2022-12-10T10:56:04;13.73;;;7.63;;
7833;SDS011;3962;42.696;23.354;2022-12-10T10:58:33;15.23;;;7.23;;
7833;SDS011;3962;42.696;23.354;2022-12-10T11:01:02;12.67;;;6.70;;
7833;SDS011;3962;42.696;23.354;2022-12-10T11:03:33;14.27;;;8.17;;
7833;SDS011;3962;42.696;23.354;2022-12-10T11:06:04;18.10;;;8.03;;
7833;SDS011;3962;42.696;23.354;2022-12-10T11:08:34;12.63;;;7.47;;
7833;SDS011;3962;42.696;23.354;2022-12-10T11:11:04;16.57;;;7.07;;
7833;SDS011;3962;42.696;23.354;2022-12-10T11:13:36;13.40;;;7.03;;
7833;SDS011;3962;42.696;23.354;2022-12-10T11:16:11;10.03;;;7.00;;
7833;SDS011;3962;42.696;23.354;2022-12-10T11:18:51;8.13;;;5.80;;
7833;SDS011;3962;42.696;23.354;2022-12-10T11:21:20;14.40;;;6.70;;
7833;SDS011;3962;42.696;23.354;2022-12-10T11:23:48;15.27;;;7.43;;
7833;SDS011;3962;42.696;23.354;2022-12-10T11:26:21;10.03;;;6.77;;
7833;SDS011;3962;42.696;23.354;2022-12-10T11:29:05;11.87;;;6.50;;
7833;SDS011;3962;42.696;23.354;2022-12-10T11:31:50;12.67;;;6.80;;
7833;SDS011;3962;42.696;23.354;2022-12-10T11:34:28;13.67;;;6.07;;
7833;SDS011;3962;42.696;23.354;2022-12-10T11:37:09;12.07;;;6.33;;
7833;SDS011;3962;42.696;23.354;2022-12-10T11:39:53;9.40;;;6.10;;
7833;SDS011;3962;42.696;23.354;2022-12-10T11:42:34;12.03;;;6.43;;
7833;SDS011;3962;42.696;23.354;2022-12-10T11:45:10;12.13;;;7.23;;
7833;SDS011;3962;42.696;23.354;2022-12-10T11:47:48;12.03;;;7.60;;
7833;SDS011;3962;42.696;23.354;2022-12-10T11:50:25;12.03;;;7.53;;
7833;SDS011;3962;42.696;23.354;2022-12-10T11:53:02;21.70;;;11.40;;
7833;SDS011;3962;42.696;23.354;2022-12-10T11:55:53;15.37;;;7.23;;
7833;SDS011;3962;42.696;23.354;2022-12-10T11:58:31;17.37;;;7.57;;
7833;SDS011;3962;42.696;23.354;2022-12-10T12:01:11;14.00;;;6.97;;
7833;SDS011;3962;42.696;23.354;2022-12-10T12:03:51;10.47;;;6.57;;
7833;SDS011;3962;42.696;23.354;2022-12-10T12:06:30;12.20;;;7.83;;
7833;SDS011;3962;42.696;23.354;2022-12-10T12:09:14;10.70;;;7.07;;
7833;SDS011;3962;42.696;23.354;2022-12-10T12:11:50;9.23;;;6.17;;
7833;SDS011;3962;42.696;23.354;2022-12-10T12:14:27;13.13;;;7.93;;
7833;SDS011;3962;42.696;23.354;2022-12-10T12:17:00;14.87;;;7.97;;
7833;SDS011;3962;42.696;23.354;2022-12-10T12:19:33;13.70;;;7.37;;
7833;SDS011;3962;42.696;23.354;2022-12-10T12:22:06;11.03;;;7.77;;
7833;SDS011;3962;42.696;23.354;2022-12-10T12:24:40;10.73;;;6.90;;
7833;SDS011;3962;42.696;23.354;2022-12-10T12:27:12;16.57;;;8.10;;
7833;SDS011;3962;42.696;23.354;2022-12-10T12:29:47;16.17;;;8.50;;
7833;SDS011;3962;42.696;23.354;2022-12-10T12:32:25;12.57;;;8.57;;
7833;SDS011;3962;42.696;23.354;2022-12-10T12:34:58;12.47;;;8.00;;
7833;SDS011;3962;42.696;23.354;2022-12-10T12:37:30;12.10;;;7.10;;
7833;SDS011;3962;42.696;23.354;2022-12-10T12:40:03;11.30;;;7.73;;
7833;SDS011;3962;42.696;23.354;2022-12-10T12:42:38;20.33;;;7.97;;
7833;SDS011;3962;42.696;23.354;2022-12-10T12:45:13;22.40;;;8.37;;
7833;SDS011;3962;42.696;23.354;2022-12-10T12:47:43;13.77;;;7.17;;
7833;SDS011;3962;42.696;23.354;2022-12-10T12:50:20;13.40;;;7.53;;
7833;SDS011;3962;42.696;23.354;2022-12-10T12:52:52;12.97;;;7.93;;
7833;SDS011;3962;42.696;23.354;2022-12-10T12:55:21;14.90;;;7.97;;
7833;SDS011;3962;42.696;23.354;2022-12-10T12:57:56;11.77;;;6.73;;
7833;SDS011;3962;42.696;23.354;2022-12-10T13:00:37;16.40;;;8.30;;
7833;SDS011;3962;42.696;23.354;2022-12-10T13:03:08;15.60;;;7.27;;
7833;SDS011;3962;42.696;23.354;2022-12-10T13:05:48;17.00;;;7.37;;
7833;SDS011;3962;42.696;23.354;2022-12-10T13:08:27;16.23;;;8.40;;
7833;SDS011;3962;42.696;23.354;2022-12-10T13:11:00;13.90;;;7.03;;
7833;SDS011;3962;42.696;23.354;2022-12-10T13:16:47;16.37;;;8.03;;
7833;SDS011;3962;42.696;23.354;2022-12-10T13:19:25;21.00;;;10.13;;
7833;SDS011;3962;42.696;23.354;2022-12-10T13:25:10;13.47;;;7.60;;
7833;SDS011;3962;42.696;23.354;2022-12-10T13:27:39;21.00;;;10.27;;
7833;SDS011;3962;42.696;23.354;2022-12-10T13:30:27;23.20;;;9.17;;
7833;SDS011;3962;42.696;23.354;2022-12-10T13:33:03;20.27;;;8.33;;
7833;SDS011;3962;42.696;23.354;2022-12-10T13:35:42;16.23;;;8.07;;
7833;SDS011;3962;42.696;23.354;2022-12-10T13:38:22;10.03;;;5.90;;
7833;SDS011;3962;42.696;23.354;2022-12-10T13:41:00;9.73;;;5.33;;
7833;SDS011;3962;42.696;23.354;2022-12-10T13:43:51;15.63;;;7.27;;
7833;SDS011;3962;42.696;23.354;2022-12-10T13:46:51;16.97;;;7.80;;
7833;SDS011;3962;42.696;23.354;2022-12-10T13:49:26;17.90;;;8.80;;
7833;SDS011;3962;42.696;23.354;2022-12-10T13:51:55;12.43;;;6.70;;
7833;SDS011;3962;42.696;23.354;2022-12-10T13:57:44;9.87;;;5.90;;
7833;SDS011;3962;42.696;23.354;2022-12-10T14:00:23;10.67;;;6.17;;
7833;SDS011;3962;42.696;23.354;2022-12-10T14:03:03;13.40;;;6.10;;
7833;SDS011;3962;42.696;23.354;2022-12-10T14:06:06;15.73;;;6.93;;
7833;SDS011;3962;42.696;23.354;2022-12-10T14:08:39;18.33;;;8.40;;
7833;SDS011;3962;42.696;23.354;2022-12-10T14:11:14;22.77;;;9.07;;
7833;SDS011;3962;42.696;23.354;2022-12-10T14:13:47;14.57;;;6.20;;
7833;SDS011;3962;42.696;23.354;2022-12-10T14:16:22;11.27;;;6.80;;
7833;SDS011;3962;42.696;23.354;2022-12-10T14:18:53;14.90;;;7.07;;
7833;SDS011;3962;42.696;23.354;2022-12-10T14:21:23;14.70;;;7.17;;
7833;SDS011;3962;42.696;23.354;2022-12-10T14:23:51;14.33;;;7.93;;
7833;SDS011;3962;42.696;23.354;2022-12-10T14:26:21;18.37;;;8.17;;
7833;SDS011;3962;42.696;23.354;2022-12-10T14:28:54;17.83;;;9.97;;
7833;SDS011;3962;42.696;23.354;2022-12-10T14:31:25;16.00;;;8.23;;
7833;SDS011;3962;42.696;23.354;2022-12-10T14:33:55;15.67;;;8.20;;
7833;SDS011;3962;42.696;23.354;2022-12-10T14:36:27;22.47;;;8.80;;
7833;SDS011;3962;42.696;23.354;2022-12-10T14:38:56;35.33;;;15.90;;
7833;SDS011;3962;42.696;23.354;2022-12-10T14:41:26;35.90;;;14.43;;
7833;SDS011;3962;42.696;23.354;2022-12-10T14:43:55;32.23;;;11.63;;
7833;SDS011;3962;42.696;23.354;2022-12-10T14:46:28;20.40;;;9.37;;
7833;SDS011;3962;42.696;23.354;2022-12-10T14:48:57;18.87;;;8.90;;
7833;SDS011;3962;42.696;23.354;2022-12-10T14:51:25;15.17;;;9.03;;
7833;SDS011;3962;42.696;23.354;2022-12-10T14:53:57;17.77;;;9.83;;
7833;SDS011;3962;42.696;23.354;2022-12-10T14:56:27;19.60;;;11.00;;
7833;SDS011;3962;42.696;23.354;2022-12-10T14:58:59;20.43;;;9.70;;
7833;SDS011;3962;42.696;23.354;2022-12-10T15:01:30;21.47;;;11.60;;
7833;SDS011;3962;42.696;23.354;2022-12-10T15:04:01;23.53;;;11.13;;
7833;SDS011;3962;42.696;23.354;2022-12-10T15:06:33;20.40;;;9.87;;
7833;SDS011;3962;42.696;23.354;2022-12-10T15:09:02;26.53;;;12.93;;
7833;SDS011;3962;42.696;23.354;2022-12-10T15:11:31;25.23;;;12.73;;
7833;SDS011;3962;42.696;23.354;2022-12-10T15:13:58;27.50;;;12.10;;